sensor_id;sensor_type;location;lat;lon;timestamp;temperature;humidity
8666;DHT22;4370;48.916;8.380;2022-08-01T00:01:58;19.30;57.40
8666;DHT22;4370;48.916;8.380;2022-08-01T00:04:24;19.20;57.90
8666;DHT22;4370;48.916;8.380;2022-08-01T00:06:50;19.10;58.30
8666;DHT22;4370;48.916;8.380;2022-08-01T00:09:16;18.60;77.60
8666;DHT22;4370;48.916;8.380;2022-08-01T00:14:08;18.80;77.70
8666;DHT22;4370;48.916;8.380;2022-08-01T00:21:27;18.60;78.90
8666;DHT22;4370;48.916;8.380;2022-08-01T00:23:53;18.70;61.10
8666;DHT22;4370;48.916;8.380;2022-08-01T00:33:38;18.90;79.40
8666;DHT22;4370;48.916;8.380;2022-08-01T00:36:04;18.70;71.50
8666;DHT22;4370;48.916;8.380;2022-08-01T00:43:24;19.10;80.30
8666;DHT22;4370;48.916;8.380;2022-08-01T00:45:49;18.60;79.90
8666;DHT22;4370;48.916;8.380;2022-08-01T00:50:41;18.90;80.50
8666;DHT22;4370;48.916;8.380;2022-08-01T00:58:00;18.80;80.80
8666;DHT22;4370;48.916;8.380;2022-08-01T01:00:26;18.80;81.00
8666;DHT22;4370;48.916;8.380;2022-08-01T01:02:53;18.90;78.10
8666;DHT22;4370;48.916;8.380;2022-08-01T01:05:20;18.80;80.70
8666;DHT22;4370;48.916;8.380;2022-08-01T01:08:19;18.90;65.00
8666;DHT22;4370;48.916;8.380;2022-08-01T01:11:05;18.50;81.00
8666;DHT22;4370;48.916;8.380;2022-08-01T01:13:43;19.10;82.30
8666;DHT22;4370;48.916;8.380;2022-08-01T01:16:15;18.70;82.70
8666;DHT22;4370;48.916;8.380;2022-08-01T01:26:47;18.40;86.40
8666;DHT22;4370;48.916;8.380;2022-08-01T01:29:30;17.90;86.80
8666;DHT22;4370;48.916;8.380;2022-08-01T01:35:05;17.80;88.90
8666;DHT22;4370;48.916;8.380;2022-08-01T01:37:33;18.10;80.80
8666;DHT22;4370;48.916;8.380;2022-08-01T01:40:00;17.80;74.10
8666;DHT22;4370;48.916;8.380;2022-08-01T01:42:28;17.70;91.50
8666;DHT22;4370;48.916;8.380;2022-08-01T01:44:54;17.70;77.10
8666;DHT22;4370;48.916;8.380;2022-08-01T01:47:21;17.70;78.60
8666;DHT22;4370;48.916;8.380;2022-08-01T01:49:49;17.80;93.90
8666;DHT22;4370;48.916;8.380;2022-08-01T01:52:16;17.60;81.90
8666;DHT22;4370;48.916;8.380;2022-08-01T01:54:46;17.70;95.10
8666;DHT22;4370;48.916;8.380;2022-08-01T01:57:13;17.90;95.90
8666;DHT22;4370;48.916;8.380;2022-08-01T01:59:41;17.70;96.50
8666;DHT22;4370;48.916;8.380;2022-08-01T02:02:07;17.50;96.80
8666;DHT22;4370;48.916;8.380;2022-08-01T02:04:37;17.30;97.10
8666;DHT22;4370;48.916;8.380;2022-08-01T02:07:06;17.40;89.10
8666;DHT22;4370;48.916;8.380;2022-08-01T02:09:37;17.00;97.80
8666;DHT22;4370;48.916;8.380;2022-08-01T02:12:05;16.90;98.20
8666;DHT22;4370;48.916;8.380;2022-08-01T02:14:34;17.40;90.60
8666;DHT22;4370;48.916;8.380;2022-08-01T02:17:01;17.50;98.60
8666;DHT22;4370;48.916;8.380;2022-08-01T02:19:30;17.10;98.70
8666;DHT22;4370;48.916;8.380;2022-08-01T02:22:03;17.20;90.80
8666;DHT22;4370;48.916;8.380;2022-08-01T02:24:56;16.90;99.10
8666;DHT22;4370;48.916;8.380;2022-08-01T02:27:30;17.60;94.50
8666;DHT22;4370;48.916;8.380;2022-08-01T02:30:02;17.00;91.80
8666;DHT22;4370;48.916;8.380;2022-08-01T02:32:43;17.10;99.90
8666;DHT22;4370;48.916;8.380;2022-08-01T02:35:17;16.90;92.90
8666;DHT22;4370;48.916;8.380;2022-08-01T02:37:47;16.90;93.40
8666;DHT22;4370;48.916;8.380;2022-08-01T02:40:16;16.60;99.90
8666;DHT22;4370;48.916;8.380;2022-08-01T02:42:50;16.80;93.90
8666;DHT22;4370;48.916;8.380;2022-08-01T02:45:18;16.70;94.40
8666;DHT22;4370;48.916;8.380;2022-08-01T02:47:50;16.70;94.80
8666;DHT22;4370;48.916;8.380;2022-08-01T02:50:18;16.30;99.90
8666;DHT22;4370;48.916;8.380;2022-08-01T02:52:47;16.70;99.90
8666;DHT22;4370;48.916;8.380;2022-08-01T02:55:14;16.60;95.40
8666;DHT22;4370;48.916;8.380;2022-08-01T02:57:41;16.60;99.90
8666;DHT22;4370;48.916;8.380;2022-08-01T03:00:09;16.40;99.90
8666;DHT22;4370;48.916;8.380;2022-08-01T03:02:35;16.50;96.00
8666;DHT22;4370;48.916;8.380;2022-08-01T03:05:02;16.40;99.90
8666;DHT22;4370;48.916;8.380;2022-08-01T03:07:28;16.60;99.90
8666;DHT22;4370;48.916;8.380;2022-08-01T03:09:56;16.40;99.90
8666;DHT22;4370;48.916;8.380;2022-08-01T03:12:26;16.40;96.70
8666;DHT22;4370;48.916;8.380;2022-08-01T03:14:54;16.00;99.90
8666;DHT22;4370;48.916;8.380;2022-08-01T03:17:22;16.30;99.90
8666;DHT22;4370;48.916;8.380;2022-08-01T03:19:50;16.20;99.90
8666;DHT22;4370;48.916;8.380;2022-08-01T03:24:44;16.20;97.70
8666;DHT22;4370;48.916;8.380;2022-08-01T03:27:14;16.20;97.90
8666;DHT22;4370;48.916;8.380;2022-08-01T03:29:41;15.90;99.90
8666;DHT22;4370;48.916;8.380;2022-08-01T03:32:09;16.40;99.90
8666;DHT22;4370;48.916;8.380;2022-08-01T03:34:36;15.90;99.90
8666;DHT22;4370;48.916;8.380;2022-08-01T03:37:12;15.80;99.90
8666;DHT22;4370;48.916;8.380;2022-08-01T03:40:07;15.90;99.90
8666;DHT22;4370;48.916;8.380;2022-08-01T03:42:33;16.10;99.90
8666;DHT22;4370;48.916;8.380;2022-08-01T03:45:11;16.00;99.50
8666;DHT22;4370;48.916;8.380;2022-08-01T03:47:42;15.70;99.90
8666;DHT22;4370;48.916;8.380;2022-08-01T03:50:11;16.30;99.90
8666;DHT22;4370;48.916;8.380;2022-08-01T03:52:39;15.90;99.90
8666;DHT22;4370;48.916;8.380;2022-08-01T03:55:07;15.90;99.90
8666;DHT22;4370;48.916;8.380;2022-08-01T03:57:33;15.90;99.90
8666;DHT22;4370;48.916;8.380;2022-08-01T04:00:00;15.90;99.90
8666;DHT22;4370;48.916;8.380;2022-08-01T04:02:29;16.00;99.90
8666;DHT22;4370;48.916;8.380;2022-08-01T04:07:26;15.80;99.90
8666;DHT22;4370;48.916;8.380;2022-08-01T04:14:44;16.20;99.90
8666;DHT22;4370;48.916;8.380;2022-08-01T04:17:10;16.60;99.90
8666;DHT22;4370;48.916;8.380;2022-08-01T04:19:36;16.40;99.90
8666;DHT22;4370;48.916;8.380;2022-08-01T04:22:03;16.50;99.90
8666;DHT22;4370;48.916;8.380;2022-08-01T04:24:30;16.70;99.90
8666;DHT22;4370;48.916;8.380;2022-08-01T04:27:00;16.50;99.90
8666;DHT22;4370;48.916;8.380;2022-08-01T04:29:27;16.60;99.90
8666;DHT22;4370;48.916;8.380;2022-08-01T04:31:55;16.60;99.90
8666;DHT22;4370;48.916;8.380;2022-08-01T04:34:24;16.70;99.90
8666;DHT22;4370;48.916;8.380;2022-08-01T04:36:52;16.70;99.90
8666;DHT22;4370;48.916;8.380;2022-08-01T04:39:20;16.70;99.90
8666;DHT22;4370;48.916;8.380;2022-08-01T04:41:48;16.80;99.90
8666;DHT22;4370;48.916;8.380;2022-08-01T04:44:14;16.90;99.90
8666;DHT22;4370;48.916;8.380;2022-08-01T04:46:40;16.90;99.90
8666;DHT22;4370;48.916;8.380;2022-08-01T04:49:07;16.90;99.90
8666;DHT22;4370;48.916;8.380;2022-08-01T04:51:34;18.10;99.90
8666;DHT22;4370;48.916;8.380;2022-08-01T04:54:00;17.10;99.90
8666;DHT22;4370;48.916;8.380;2022-08-01T04:56:28;17.20;99.90
8666;DHT22;4370;48.916;8.380;2022-08-01T04:58:53;17.10;99.90
8666;DHT22;4370;48.916;8.380;2022-08-01T05:04:04;17.60;99.90
8666;DHT22;4370;48.916;8.380;2022-08-01T05:06:31;18.00;99.60
8666;DHT22;4370;48.916;8.380;2022-08-01T05:08:57;18.20;99.90
8666;DHT22;4370;48.916;8.380;2022-08-01T05:11:22;18.10;99.70
8666;DHT22;4370;48.916;8.380;2022-08-01T05:16:14;18.70;99.90
8666;DHT22;4370;48.916;8.380;2022-08-01T05:18:39;18.70;99.90
8666;DHT22;4370;48.916;8.380;2022-08-01T05:21:05;18.90;99.90
8666;DHT22;4370;48.916;8.380;2022-08-01T05:23:31;19.10;98.50
8666;DHT22;4370;48.916;8.380;2022-08-01T05:25:57;19.30;98.30
8666;DHT22;4370;48.916;8.380;2022-08-01T05:28:23;19.40;97.90
8666;DHT22;4370;48.916;8.380;2022-08-01T05:30:49;19.60;97.40
8666;DHT22;4370;48.916;8.380;2022-08-01T05:33:16;19.90;97.00
8666;DHT22;4370;48.916;8.380;2022-08-01T05:35:41;20.70;96.70
8666;DHT22;4370;48.916;8.380;2022-08-01T05:38:07;20.40;95.80
8666;DHT22;4370;48.916;8.380;2022-08-01T05:42:58;20.80;94.20
8666;DHT22;4370;48.916;8.380;2022-08-01T05:45:24;21.00;94.00
8666;DHT22;4370;48.916;8.380;2022-08-01T05:47:49;21.30;93.30
8666;DHT22;4370;48.916;8.380;2022-08-01T05:52:41;21.80;91.50
8666;DHT22;4370;48.916;8.380;2022-08-01T05:55:07;22.00;91.10
8666;DHT22;4370;48.916;8.380;2022-08-01T05:57:36;22.20;89.90
8666;DHT22;4370;48.916;8.380;2022-08-01T06:00:02;22.50;88.50
8666;DHT22;4370;48.916;8.380;2022-08-01T06:02:29;22.80;86.60
8666;DHT22;4370;48.916;8.380;2022-08-01T06:04:56;22.80;84.50
8666;DHT22;4370;48.916;8.380;2022-08-01T06:07:22;24.10;81.10
8666;DHT22;4370;48.916;8.380;2022-08-01T06:09:47;25.90;74.80
8666;DHT22;4370;48.916;8.380;2022-08-01T06:12:13;27.10;66.60
8666;DHT22;4370;48.916;8.380;2022-08-01T06:14:39;28.60;60.00
8666;DHT22;4370;48.916;8.380;2022-08-01T06:17:05;30.10;53.90
8666;DHT22;4370;48.916;8.380;2022-08-01T06:19:32;31.30;49.30
8666;DHT22;4370;48.916;8.380;2022-08-01T06:21:58;32.40;45.90
8666;DHT22;4370;48.916;8.380;2022-08-01T06:24:23;33.20;43.40
8666;DHT22;4370;48.916;8.380;2022-08-01T06:26:49;34.20;41.20
8666;DHT22;4370;48.916;8.380;2022-08-01T06:29:15;34.90;39.00
8666;DHT22;4370;48.916;8.380;2022-08-01T06:31:40;35.90;37.20
8666;DHT22;4370;48.916;8.380;2022-08-01T06:34:06;36.40;35.60
8666;DHT22;4370;48.916;8.380;2022-08-01T06:36:33;36.20;35.40
8666;DHT22;4370;48.916;8.380;2022-08-01T06:38:59;35.30;35.80
8666;DHT22;4370;48.916;8.380;2022-08-01T06:41:24;34.60;37.20
8666;DHT22;4370;48.916;8.380;2022-08-01T06:43:51;32.80;53.30
8666;DHT22;4370;48.916;8.380;2022-08-01T06:46:17;32.70;39.60
8666;DHT22;4370;48.916;8.380;2022-08-01T06:48:43;31.10;56.20
8666;DHT22;4370;48.916;8.380;2022-08-01T06:51:08;31.10;42.30
8666;DHT22;4370;48.916;8.380;2022-08-01T06:53:35;31.40;42.50
8666;DHT22;4370;48.916;8.380;2022-08-01T06:56:01;31.60;42.00
8666;DHT22;4370;48.916;8.380;2022-08-01T06:58:27;31.40;42.20
8666;DHT22;4370;48.916;8.380;2022-08-01T07:00:54;30.80;42.90
8666;DHT22;4370;48.916;8.380;2022-08-01T07:03:20;30.10;45.00
8666;DHT22;4370;48.916;8.380;2022-08-01T07:05:45;29.40;45.40
8666;DHT22;4370;48.916;8.380;2022-08-01T07:08:11;28.70;46.60
8666;DHT22;4370;48.916;8.380;2022-08-01T07:13:02;27.60;48.40
8666;DHT22;4370;48.916;8.380;2022-08-01T07:15:28;27.60;50.10
8666;DHT22;4370;48.916;8.380;2022-08-01T07:17:53;27.10;50.80
8666;DHT22;4370;48.916;8.380;2022-08-01T07:20:19;27.50;50.90
8666;DHT22;4370;48.916;8.380;2022-08-01T07:22:45;27.30;50.50
8666;DHT22;4370;48.916;8.380;2022-08-01T07:25:10;27.80;50.80
8666;DHT22;4370;48.916;8.380;2022-08-01T07:27:36;27.80;49.90
8666;DHT22;4370;48.916;8.380;2022-08-01T07:30:03;28.10;50.60
8666;DHT22;4370;48.916;8.380;2022-08-01T07:32:29;27.80;50.40
8666;DHT22;4370;48.916;8.380;2022-08-01T07:34:55;27.20;50.20
8666;DHT22;4370;48.916;8.380;2022-08-01T07:37:21;27.40;50.40
8666;DHT22;4370;48.916;8.380;2022-08-01T07:42:13;27.70;50.30
8666;DHT22;4370;48.916;8.380;2022-08-01T07:44:39;27.60;51.20
8666;DHT22;4370;48.916;8.380;2022-08-01T07:47:05;28.30;51.70
8666;DHT22;4370;48.916;8.380;2022-08-01T07:49:31;28.60;50.30
8666;DHT22;4370;48.916;8.380;2022-08-01T07:51:56;29.20;49.20
8666;DHT22;4370;48.916;8.380;2022-08-01T07:56:50;31.50;45.10
8666;DHT22;4370;48.916;8.380;2022-08-01T07:59:15;32.90;43.40
8666;DHT22;4370;48.916;8.380;2022-08-01T08:01:41;34.00;40.90
8666;DHT22;4370;48.916;8.380;2022-08-01T08:04:07;34.80;39.10
8666;DHT22;4370;48.916;8.380;2022-08-01T08:06:32;34.90;38.60
8666;DHT22;4370;48.916;8.380;2022-08-01T08:08:58;34.40;38.80
8666;DHT22;4370;48.916;8.380;2022-08-01T08:11:23;34.20;39.20
8666;DHT22;4370;48.916;8.380;2022-08-01T08:13:49;34.10;39.20
8666;DHT22;4370;48.916;8.380;2022-08-01T08:16:14;33.90;39.30
8666;DHT22;4370;48.916;8.380;2022-08-01T08:18:40;33.20;54.40
8666;DHT22;4370;48.916;8.380;2022-08-01T08:21:05;33.00;40.80
8666;DHT22;4370;48.916;8.380;2022-08-01T08:23:31;32.50;41.70
8666;DHT22;4370;48.916;8.380;2022-08-01T08:26:15;31.90;42.50
8666;DHT22;4370;48.916;8.380;2022-08-01T08:28:41;31.10;58.40
8666;DHT22;4370;48.916;8.380;2022-08-01T08:31:07;30.90;43.50
8666;DHT22;4370;48.916;8.380;2022-08-01T08:35:59;30.80;44.10
8666;DHT22;4370;48.916;8.380;2022-08-01T08:38:24;30.50;45.00
8666;DHT22;4370;48.916;8.380;2022-08-01T08:40:52;30.50;45.60
8666;DHT22;4370;48.916;8.380;2022-08-01T08:43:18;30.40;45.60
8666;DHT22;4370;48.916;8.380;2022-08-01T08:45:45;30.40;45.40
8666;DHT22;4370;48.916;8.380;2022-08-01T08:48:12;30.60;44.90
8666;DHT22;4370;48.916;8.380;2022-08-01T08:50:38;30.60;45.40
8666;DHT22;4370;48.916;8.380;2022-08-01T08:53:05;30.70;45.20
8666;DHT22;4370;48.916;8.380;2022-08-01T08:55:34;30.60;45.10
8666;DHT22;4370;48.916;8.380;2022-08-01T08:58:00;30.50;44.60
8666;DHT22;4370;48.916;8.380;2022-08-01T09:00:31;30.40;44.70
8666;DHT22;4370;48.916;8.380;2022-08-01T09:02:57;30.20;45.10
8666;DHT22;4370;48.916;8.380;2022-08-01T09:05:24;30.20;45.50
8666;DHT22;4370;48.916;8.380;2022-08-01T09:07:53;30.00;45.40
8666;DHT22;4370;48.916;8.380;2022-08-01T09:10:19;30.20;45.50
8666;DHT22;4370;48.916;8.380;2022-08-01T09:15:59;30.40;44.80
8666;DHT22;4370;48.916;8.380;2022-08-01T09:18:38;30.60;45.10
8666;DHT22;4370;48.916;8.380;2022-08-01T09:23:43;30.10;45.10
8666;DHT22;4370;48.916;8.380;2022-08-01T09:26:11;30.20;45.40
8666;DHT22;4370;48.916;8.380;2022-08-01T09:28:37;30.30;60.10
8666;DHT22;4370;48.916;8.380;2022-08-01T09:31:09;30.10;45.40
8666;DHT22;4370;48.916;8.380;2022-08-01T09:36:24;29.80;45.80
8666;DHT22;4370;48.916;8.380;2022-08-01T09:38:51;29.50;61.80
8666;DHT22;4370;48.916;8.380;2022-08-01T09:41:17;29.30;46.50
8666;DHT22;4370;48.916;8.380;2022-08-01T09:43:53;29.60;47.20
8666;DHT22;4370;48.916;8.380;2022-08-01T09:46:19;29.60;46.60
8666;DHT22;4370;48.916;8.380;2022-08-01T09:48:59;29.60;60.30
8666;DHT22;4370;48.916;8.380;2022-08-01T09:51:36;29.80;46.00
8666;DHT22;4370;48.916;8.380;2022-08-01T09:54:04;29.80;45.90
8666;DHT22;4370;48.916;8.380;2022-08-01T09:56:42;29.70;46.00
8666;DHT22;4370;48.916;8.380;2022-08-01T09:59:08;29.60;46.20
8666;DHT22;4370;48.916;8.380;2022-08-01T10:04:12;29.50;46.30
8666;DHT22;4370;48.916;8.380;2022-08-01T10:06:39;29.50;46.80
8666;DHT22;4370;48.916;8.380;2022-08-01T10:09:05;29.50;46.90
8666;DHT22;4370;48.916;8.380;2022-08-01T10:11:31;29.60;46.40
8666;DHT22;4370;48.916;8.380;2022-08-01T10:13:59;29.60;46.90
8666;DHT22;4370;48.916;8.380;2022-08-01T10:16:26;29.80;46.60
8666;DHT22;4370;48.916;8.380;2022-08-01T10:18:54;29.90;45.50
8666;DHT22;4370;48.916;8.380;2022-08-01T10:21:20;29.80;45.90
8666;DHT22;4370;48.916;8.380;2022-08-01T10:26:12;29.80;45.60
8666;DHT22;4370;48.916;8.380;2022-08-01T10:28:39;29.30;61.40
8666;DHT22;4370;48.916;8.380;2022-08-01T10:31:07;29.30;46.80
8666;DHT22;4370;48.916;8.380;2022-08-01T10:33:33;29.10;47.60
8666;DHT22;4370;48.916;8.380;2022-08-01T10:40:54;28.50;48.40
8666;DHT22;4370;48.916;8.380;2022-08-01T10:43:21;29.40;49.40
8666;DHT22;4370;48.916;8.380;2022-08-01T10:45:47;28.60;48.70
8666;DHT22;4370;48.916;8.380;2022-08-01T10:50:55;29.20;48.30
8666;DHT22;4370;48.916;8.380;2022-08-01T10:53:25;29.60;47.50
8666;DHT22;4370;48.916;8.380;2022-08-01T11:01:14;30.60;45.30
8666;DHT22;4370;48.916;8.380;2022-08-01T11:03:43;31.00;44.80
8666;DHT22;4370;48.916;8.380;2022-08-01T11:06:22;31.40;58.30
8666;DHT22;4370;48.916;8.380;2022-08-01T11:08:54;31.30;57.80
8666;DHT22;4370;48.916;8.380;2022-08-01T11:11:21;31.30;43.00
8666;DHT22;4370;48.916;8.380;2022-08-01T11:16:31;30.80;43.40
8666;DHT22;4370;48.916;8.380;2022-08-01T11:18:57;30.50;43.60
8666;DHT22;4370;48.916;8.380;2022-08-01T11:27:26;30.00;44.70
8666;DHT22;4370;48.916;8.380;2022-08-01T11:32:49;30.30;44.30
8666;DHT22;4370;48.916;8.380;2022-08-01T11:35:15;30.40;42.40
8666;DHT22;4370;48.916;8.380;2022-08-01T11:37:41;30.70;42.50
8666;DHT22;4370;48.916;8.380;2022-08-01T11:40:17;30.70;42.70
8666;DHT22;4370;48.916;8.380;2022-08-01T11:42:42;30.80;42.50
8666;DHT22;4370;48.916;8.380;2022-08-01T11:45:08;31.00;42.20
8666;DHT22;4370;48.916;8.380;2022-08-01T11:47:48;31.30;41.20
8666;DHT22;4370;48.916;8.380;2022-08-01T11:50:33;31.30;40.80
8666;DHT22;4370;48.916;8.380;2022-08-01T11:53:05;31.30;40.90
8666;DHT22;4370;48.916;8.380;2022-08-01T11:55:31;31.20;41.20
8666;DHT22;4370;48.916;8.380;2022-08-01T11:58:06;31.20;41.10
8666;DHT22;4370;48.916;8.380;2022-08-01T12:00:32;31.20;40.80
8666;DHT22;4370;48.916;8.380;2022-08-01T12:03:00;31.10;40.80
8666;DHT22;4370;48.916;8.380;2022-08-01T12:05:27;30.80;41.10
8666;DHT22;4370;48.916;8.380;2022-08-01T12:07:54;30.80;41.60
8666;DHT22;4370;48.916;8.380;2022-08-01T12:10:22;30.70;41.00
8666;DHT22;4370;48.916;8.380;2022-08-01T12:12:51;31.10;41.80
8666;DHT22;4370;48.916;8.380;2022-08-01T12:15:18;30.80;41.60
8666;DHT22;4370;48.916;8.380;2022-08-01T12:17:47;30.90;41.20
8666;DHT22;4370;48.916;8.380;2022-08-01T12:20:18;31.00;40.90
8666;DHT22;4370;48.916;8.380;2022-08-01T12:22:47;31.00;40.70
8666;DHT22;4370;48.916;8.380;2022-08-01T12:25:16;31.00;41.10
8666;DHT22;4370;48.916;8.380;2022-08-01T12:27:44;31.00;41.20
8666;DHT22;4370;48.916;8.380;2022-08-01T12:30:15;31.10;39.90
8666;DHT22;4370;48.916;8.380;2022-08-01T12:32:43;31.10;40.20
8666;DHT22;4370;48.916;8.380;2022-08-01T12:35:11;31.10;40.20
8666;DHT22;4370;48.916;8.380;2022-08-01T12:37:38;31.10;40.30
8666;DHT22;4370;48.916;8.380;2022-08-01T12:40:16;31.10;40.40
8666;DHT22;4370;48.916;8.380;2022-08-01T12:42:45;31.10;41.20
8666;DHT22;4370;48.916;8.380;2022-08-01T12:45:18;31.00;40.50
8666;DHT22;4370;48.916;8.380;2022-08-01T12:47:45;30.90;41.00
8666;DHT22;4370;48.916;8.380;2022-08-01T12:50:15;30.70;41.10
8666;DHT22;4370;48.916;8.380;2022-08-01T12:52:42;30.80;41.30
8666;DHT22;4370;48.916;8.380;2022-08-01T12:55:14;30.70;41.70
8666;DHT22;4370;48.916;8.380;2022-08-01T12:57:45;30.60;42.00
8666;DHT22;4370;48.916;8.380;2022-08-01T13:02:46;30.50;41.70
8666;DHT22;4370;48.916;8.380;2022-08-01T13:05:12;30.40;42.10
8666;DHT22;4370;48.916;8.380;2022-08-01T13:07:48;30.50;42.10
8666;DHT22;4370;48.916;8.380;2022-08-01T13:10:24;30.60;41.20
8666;DHT22;4370;48.916;8.380;2022-08-01T13:12:58;30.80;40.60
8666;DHT22;4370;48.916;8.380;2022-08-01T13:15:30;30.50;40.80
8666;DHT22;4370;48.916;8.380;2022-08-01T13:18:01;31.30;39.80
8666;DHT22;4370;48.916;8.380;2022-08-01T13:20:45;31.30;40.30
8666;DHT22;4370;48.916;8.380;2022-08-01T13:25:54;31.90;38.90
8666;DHT22;4370;48.916;8.380;2022-08-01T13:28:25;31.90;38.30
8666;DHT22;4370;48.916;8.380;2022-08-01T13:30:53;31.80;38.80
8666;DHT22;4370;48.916;8.380;2022-08-01T13:33:19;31.90;38.90
8666;DHT22;4370;48.916;8.380;2022-08-01T13:35:44;31.60;38.90
8666;DHT22;4370;48.916;8.380;2022-08-01T13:38:11;31.40;39.00
8666;DHT22;4370;48.916;8.380;2022-08-01T13:43:03;31.10;39.00
8666;DHT22;4370;48.916;8.380;2022-08-01T13:47:55;31.00;39.10
8666;DHT22;4370;48.916;8.380;2022-08-01T13:50:21;30.90;39.70
8666;DHT22;4370;48.916;8.380;2022-08-01T13:52:46;31.00;39.60
8666;DHT22;4370;48.916;8.380;2022-08-01T13:55:12;31.10;39.20
8666;DHT22;4370;48.916;8.380;2022-08-01T13:57:38;30.90;38.50
8666;DHT22;4370;48.916;8.380;2022-08-01T14:00:07;30.80;39.00
8666;DHT22;4370;48.916;8.380;2022-08-01T14:02:34;30.80;39.30
8666;DHT22;4370;48.916;8.380;2022-08-01T14:05:00;30.90;39.60
8666;DHT22;4370;48.916;8.380;2022-08-01T14:07:27;31.00;39.60
8666;DHT22;4370;48.916;8.380;2022-08-01T14:09:55;31.30;39.10
8666;DHT22;4370;48.916;8.380;2022-08-01T14:14:47;31.50;38.50
8666;DHT22;4370;48.916;8.380;2022-08-01T14:17:13;31.60;38.70
8666;DHT22;4370;48.916;8.380;2022-08-01T14:19:38;31.90;37.90
8666;DHT22;4370;48.916;8.380;2022-08-01T14:22:04;32.00;37.50
8666;DHT22;4370;48.916;8.380;2022-08-01T14:24:30;32.10;37.60
8666;DHT22;4370;48.916;8.380;2022-08-01T14:29:22;32.00;37.10
8666;DHT22;4370;48.916;8.380;2022-08-01T14:31:47;32.10;37.50
8666;DHT22;4370;48.916;8.380;2022-08-01T14:34:13;32.00;36.80
8666;DHT22;4370;48.916;8.380;2022-08-01T14:36:39;32.00;36.90
8666;DHT22;4370;48.916;8.380;2022-08-01T14:39:04;31.80;37.30
8666;DHT22;4370;48.916;8.380;2022-08-01T14:41:30;31.70;37.90
8666;DHT22;4370;48.916;8.380;2022-08-01T14:43:55;31.50;38.00
8666;DHT22;4370;48.916;8.380;2022-08-01T14:46:21;31.30;38.30
8666;DHT22;4370;48.916;8.380;2022-08-01T14:48:46;31.00;54.40
8666;DHT22;4370;48.916;8.380;2022-08-01T14:51:13;30.80;39.00
8666;DHT22;4370;48.916;8.380;2022-08-01T14:53:39;31.50;39.90
8666;DHT22;4370;48.916;8.380;2022-08-01T14:56:05;30.50;39.70
8666;DHT22;4370;48.916;8.380;2022-08-01T14:58:31;30.40;40.10
8666;DHT22;4370;48.916;8.380;2022-08-01T15:00:56;30.30;40.50
8666;DHT22;4370;48.916;8.380;2022-08-01T15:03:22;30.20;40.50
8666;DHT22;4370;48.916;8.380;2022-08-01T15:05:48;30.10;40.10
8666;DHT22;4370;48.916;8.380;2022-08-01T15:08:13;30.10;40.10
8666;DHT22;4370;48.916;8.380;2022-08-01T15:10:39;30.20;40.50
8666;DHT22;4370;48.916;8.380;2022-08-01T15:13:04;30.20;40.30
8666;DHT22;4370;48.916;8.380;2022-08-01T15:15:31;30.10;40.40
8666;DHT22;4370;48.916;8.380;2022-08-01T15:17:59;30.50;40.40
8666;DHT22;4370;48.916;8.380;2022-08-01T15:22:52;30.60;39.60
8666;DHT22;4370;48.916;8.380;2022-08-01T15:25:18;30.70;54.70
8666;DHT22;4370;48.916;8.380;2022-08-01T15:27:44;30.80;40.40
8666;DHT22;4370;48.916;8.380;2022-08-01T15:30:10;30.80;40.20
8666;DHT22;4370;48.916;8.380;2022-08-01T15:32:35;30.90;40.10
8666;DHT22;4370;48.916;8.380;2022-08-01T15:35:01;30.80;40.20
8666;DHT22;4370;48.916;8.380;2022-08-01T15:37:27;30.80;40.30
8666;DHT22;4370;48.916;8.380;2022-08-01T15:39:52;30.80;40.50
8666;DHT22;4370;48.916;8.380;2022-08-01T15:42:20;30.90;40.60
8666;DHT22;4370;48.916;8.380;2022-08-01T15:44:46;30.80;40.60
8666;DHT22;4370;48.916;8.380;2022-08-01T15:47:11;30.80;40.40
8666;DHT22;4370;48.916;8.380;2022-08-01T15:49:38;30.70;40.70
8666;DHT22;4370;48.916;8.380;2022-08-01T15:52:06;30.40;41.50
8666;DHT22;4370;48.916;8.380;2022-08-01T15:54:33;30.50;41.30
8666;DHT22;4370;48.916;8.380;2022-08-01T15:56:59;30.30;41.10
8666;DHT22;4370;48.916;8.380;2022-08-01T15:59:25;30.30;41.50
8666;DHT22;4370;48.916;8.380;2022-08-01T16:01:51;30.10;41.70
8666;DHT22;4370;48.916;8.380;2022-08-01T16:06:43;29.90;41.30
8666;DHT22;4370;48.916;8.380;2022-08-01T16:09:10;30.60;42.70
8666;DHT22;4370;48.916;8.380;2022-08-01T16:11:35;29.60;42.50
8666;DHT22;4370;48.916;8.380;2022-08-01T16:14:02;29.30;42.90
8666;DHT22;4370;48.916;8.380;2022-08-01T16:16:28;29.00;43.20
8666;DHT22;4370;48.916;8.380;2022-08-01T16:23:47;28.90;43.60
8666;DHT22;4370;48.916;8.380;2022-08-01T16:26:15;29.00;44.20
8666;DHT22;4370;48.916;8.380;2022-08-01T16:28:41;29.00;58.70
8666;DHT22;4370;48.916;8.380;2022-08-01T16:31:06;29.30;43.90
8666;DHT22;4370;48.916;8.380;2022-08-01T16:33:32;29.20;43.70
8666;DHT22;4370;48.916;8.380;2022-08-01T16:35:59;29.40;43.80
8666;DHT22;4370;48.916;8.380;2022-08-01T16:38:25;29.40;43.20
8666;DHT22;4370;48.916;8.380;2022-08-01T16:40:52;28.60;42.60
8666;DHT22;4370;48.916;8.380;2022-08-01T16:43:20;29.30;43.30
8666;DHT22;4370;48.916;8.380;2022-08-01T16:45:46;29.20;43.40
8666;DHT22;4370;48.916;8.380;2022-08-01T16:48:15;29.00;43.40
8666;DHT22;4370;48.916;8.380;2022-08-01T16:50:43;29.10;43.90
8666;DHT22;4370;48.916;8.380;2022-08-01T16:53:09;28.60;43.70
8666;DHT22;4370;48.916;8.380;2022-08-01T16:55:36;28.20;43.60
8666;DHT22;4370;48.916;8.380;2022-08-01T16:58:02;28.50;43.80
8666;DHT22;4370;48.916;8.380;2022-08-01T17:00:27;29.00;44.50
8666;DHT22;4370;48.916;8.380;2022-08-01T17:02:53;28.50;44.30
8666;DHT22;4370;48.916;8.380;2022-08-01T17:05:19;27.90;60.00
8666;DHT22;4370;48.916;8.380;2022-08-01T17:07:45;28.00;44.50
8666;DHT22;4370;48.916;8.380;2022-08-01T17:10:11;28.00;44.50
8666;DHT22;4370;48.916;8.380;2022-08-01T17:12:38;28.40;44.80
8666;DHT22;4370;48.916;8.380;2022-08-01T17:15:05;27.90;44.50
8666;DHT22;4370;48.916;8.380;2022-08-01T17:17:31;27.90;44.60
8666;DHT22;4370;48.916;8.380;2022-08-01T17:19:58;27.90;44.60
8666;DHT22;4370;48.916;8.380;2022-08-01T17:22:24;27.90;44.60
8666;DHT22;4370;48.916;8.380;2022-08-01T17:24:49;27.40;44.30
8666;DHT22;4370;48.916;8.380;2022-08-01T17:27:16;27.90;44.70
8666;DHT22;4370;48.916;8.380;2022-08-01T17:29:42;27.90;44.90
8666;DHT22;4370;48.916;8.380;2022-08-01T17:32:07;28.60;45.50
8666;DHT22;4370;48.916;8.380;2022-08-01T17:37:00;27.70;44.80
8666;DHT22;4370;48.916;8.380;2022-08-01T17:39:25;27.00;45.00
8666;DHT22;4370;48.916;8.380;2022-08-01T17:41:51;27.90;45.70
8666;DHT22;4370;48.916;8.380;2022-08-01T17:44:16;28.50;46.20
8666;DHT22;4370;48.916;8.380;2022-08-01T17:46:42;27.60;45.80
8666;DHT22;4370;48.916;8.380;2022-08-01T17:49:08;26.90;45.60
8666;DHT22;4370;48.916;8.380;2022-08-01T17:53:59;27.10;45.60
8666;DHT22;4370;48.916;8.380;2022-08-01T17:56:25;27.00;46.20
8666;DHT22;4370;48.916;8.380;2022-08-01T17:58:51;26.80;62.00
8666;DHT22;4370;48.916;8.380;2022-08-01T18:01:18;26.90;46.70
8666;DHT22;4370;48.916;8.380;2022-08-01T18:03:44;26.80;46.80
8666;DHT22;4370;48.916;8.380;2022-08-01T18:06:11;26.60;47.10
8666;DHT22;4370;48.916;8.380;2022-08-01T18:08:44;26.60;62.90
8666;DHT22;4370;48.916;8.380;2022-08-01T18:11:11;25.60;46.90
8666;DHT22;4370;48.916;8.380;2022-08-01T18:13:36;26.50;47.80
8666;DHT22;4370;48.916;8.380;2022-08-01T18:16:03;26.30;47.40
8666;DHT22;4370;48.916;8.380;2022-08-01T18:18:31;26.30;47.90
8666;DHT22;4370;48.916;8.380;2022-08-01T18:20:57;27.30;48.70